createdAt,value
2022-10-21T00:00:09.418Z,32.85
2022-10-21T00:02:36.113Z,31.20
2022-10-21T00:05:03.080Z,37.05
2022-10-21T00:07:29.596Z,32.72
2022-10-21T00:09:56.092Z,34.22
2022-10-21T00:12:22.538Z,30.30
2022-10-21T00:14:50.678Z,31.27
2022-10-21T00:17:18.994Z,32.28
2022-10-21T00:19:45.438Z,33.05
2022-10-21T00:22:11.876Z,33.47
2022-10-21T00:24:38.365Z,29.38
2022-10-21T00:27:04.824Z,32.88
2022-10-21T00:29:31.247Z,31.98
2022-10-21T00:31:57.622Z,31.42
2022-10-21T00:34:28.385Z,37.72
2022-10-21T00:36:56.403Z,38.53
2022-10-21T00:39:22.843Z,39.05
2022-10-21T00:41:49.295Z,38.92
2022-10-21T00:44:15.767Z,37.40
2022-10-21T00:46:55.443Z,37.53
2022-10-21T00:49:32.520Z,34.63
2022-10-21T00:52:00.319Z,32.35
2022-10-21T00:54:27.519Z,30.95
2022-10-21T00:56:55.025Z,29.33
2022-10-21T00:59:23.110Z,35.75
2022-10-21T01:01:49.666Z,34.45
2022-10-21T01:04:16.084Z,35.45
2022-10-21T01:06:43.021Z,31.00
2022-10-21T01:09:09.645Z,32.35
2022-10-21T01:11:44.273Z,29.70
2022-10-21T01:14:24.705Z,33.30
2022-10-21T01:17:45.410Z,32.42
2022-10-21T01:20:21.605Z,31.38
2022-10-21T01:23:09.714Z,34.13
2022-10-21T01:25:57.546Z,31.17
2022-10-21T01:28:39.637Z,30.58
2022-10-21T01:31:05.907Z,32.47
2022-10-21T01:33:35.602Z,30.00
2022-10-21T01:36:29.261Z,30.95
2022-10-21T01:39:08.829Z,27.70
2022-10-21T01:41:44.627Z,28.20
2022-10-21T01:44:49.928Z,24.52
2022-10-21T01:47:23.033Z,24.95
2022-10-21T01:49:57.766Z,24.77
2022-10-21T01:52:24.307Z,25.95
2022-10-21T01:54:57.873Z,25.65
2022-10-21T01:57:27.131Z,24.00
2022-10-21T01:59:54.610Z,26.67
2022-10-21T02:02:21.993Z,24.63
2022-10-21T02:04:50.338Z,26.20
2022-10-21T02:07:16.747Z,22.65
2022-10-21T02:09:43.150Z,28.70
2022-10-21T02:12:10.086Z,26.48
2022-10-21T02:14:47.726Z,24.63
2022-10-21T02:17:18.478Z,27.48
2022-10-21T02:19:46.421Z,23.80
2022-10-21T02:22:16.892Z,26.05
2022-10-21T02:24:52.206Z,30.27
2022-10-21T02:27:19.667Z,25.00
2022-10-21T02:29:47.395Z,27.02
2022-10-21T02:32:26.980Z,28.27
2022-10-21T02:35:12.112Z,24.02
2022-10-21T02:37:53.669Z,26.88
2022-10-21T02:40:37.004Z,22.88
2022-10-21T02:43:13.843Z,25.63
2022-10-21T02:45:40.454Z,26.05
2022-10-21T02:48:06.953Z,24.45
2022-10-21T02:50:33.325Z,27.42
2022-10-21T02:52:59.711Z,27.92
2022-10-21T02:55:26.201Z,24.90
2022-10-21T02:57:52.607Z,25.00
2022-10-21T03:00:19.171Z,29.80
2022-10-21T03:02:45.656Z,24.90
2022-10-21T03:05:12.898Z,32.67
2022-10-21T03:07:40.332Z,34.03
2022-10-21T03:10:07.440Z,28.08
2022-10-21T03:12:33.848Z,31.23
2022-10-21T03:15:00.247Z,31.50
2022-10-21T03:17:26.650Z,30.85
2022-10-21T03:19:53.141Z,34.55
2022-10-21T03:22:19.560Z,33.88
2022-10-21T03:24:45.951Z,34.88
2022-10-21T03:27:12.357Z,32.35
2022-10-21T03:29:38.804Z,30.27
2022-10-21T03:32:05.440Z,33.08
2022-10-21T03:34:31.822Z,33.75
2022-10-21T03:36:58.460Z,32.13
2022-10-21T03:39:24.873Z,32.40
2022-10-21T03:41:51.302Z,33.60
2022-10-21T03:44:17.725Z,36.45
2022-10-21T03:46:44.150Z,29.55
2022-10-21T03:49:18.389Z,31.92
2022-10-21T03:51:47.471Z,39.38
2022-10-21T03:54:13.851Z,37.33
2022-10-21T03:56:40.237Z,32.50
2022-10-21T03:59:06.660Z,35.15
2022-10-21T04:01:33.131Z,31.60
2022-10-21T04:03:59.506Z,34.53
2022-10-21T04:06:25.934Z,35.97
2022-10-21T04:08:52.692Z,29.45
2022-10-21T04:11:19.153Z,32.17
2022-10-21T04:13:45.556Z,34.97
2022-10-21T04:16:17.851Z,29.42
2022-10-21T04:18:44.377Z,30.33
2022-10-21T04:21:11.050Z,27.70
2022-10-21T04:23:37.583Z,27.02
2022-10-21T04:26:04.986Z,29.50
2022-10-21T04:28:31.416Z,33.03
2022-10-21T04:30:57.919Z,24.02
2022-10-21T04:33:24.593Z,24.60
2022-10-21T04:35:51.143Z,25.05
2022-10-21T04:38:17.492Z,24.10
2022-10-21T04:40:43.975Z,23.98
2022-10-21T04:43:10.356Z,23.52
2022-10-21T04:45:40.324Z,20.23
2022-10-21T04:48:07.265Z,21.48
2022-10-21T04:50:35.178Z,18.80
2022-10-21T04:53:01.597Z,19.65
2022-10-21T04:55:28.039Z,19.13
2022-10-21T04:57:54.453Z,16.42
2022-10-21T05:00:20.898Z,16.50
2022-10-21T05:02:47.394Z,22.15
2022-10-21T05:05:13.821Z,21.23
2022-10-21T05:07:40.285Z,23.42
2022-10-21T05:10:06.926Z,25.40
2022-10-21T05:12:33.360Z,23.50
2022-10-21T05:15:00.592Z,22.13
2022-10-21T05:17:27.036Z,23.85
2022-10-21T05:19:53.469Z,24.05
2022-10-21T05:22:19.864Z,20.60
2022-10-21T05:24:46.493Z,26.30
2022-10-21T05:27:12.896Z,21.92
2022-10-21T05:29:39.348Z,25.17
2022-10-21T05:32:05.816Z,26.75
2022-10-21T05:34:32.218Z,27.83
2022-10-21T05:36:58.972Z,25.10
2022-10-21T05:39:25.579Z,24.33
2022-10-21T05:41:51.983Z,24.85
2022-10-21T05:44:18.936Z,24.35
2022-10-21T05:46:45.455Z,23.25
2022-10-21T05:49:13.060Z,21.15
2022-10-21T05:51:39.457Z,24.55
2022-10-21T05:54:05.852Z,23.55
2022-10-21T05:56:32.815Z,23.38
2022-10-21T05:58:59.187Z,21.58
2022-10-21T06:01:25.712Z,19.65
2022-10-21T06:03:52.160Z,21.67
2022-10-21T06:06:18.661Z,20.10
2022-10-21T06:08:45.454Z,19.13
2022-10-21T06:11:17.326Z,19.42
2022-10-21T06:13:43.873Z,18.23
2022-10-21T06:16:11.192Z,19.00
2022-10-21T06:18:38.054Z,15.52
2022-10-21T06:21:05.281Z,15.88
2022-10-21T06:23:32.019Z,15.02
2022-10-21T06:26:11.233Z,17.67
2022-10-21T06:28:39.277Z,17.95
2022-10-21T06:31:06.854Z,15.05
2022-10-21T06:33:34.089Z,16.52
2022-10-21T06:36:00.512Z,17.63
2022-10-21T06:38:27.023Z,18.05
2022-10-21T06:40:53.809Z,15.15
2022-10-21T06:43:20.222Z,12.20
2022-10-21T06:45:46.657Z,12.38
2022-10-21T06:48:19.152Z,13.10
2022-10-21T06:53:12.115Z,12.93
2022-10-21T06:55:38.530Z,13.98
2022-10-21T06:58:04.943Z,14.68
2022-10-21T07:03:02.635Z,16.83
2022-10-21T07:05:29.033Z,19.00
2022-10-21T07:07:55.417Z,14.27
2022-10-21T07:10:21.820Z,18.00
2022-10-21T07:12:48.266Z,13.95
2022-10-21T07:15:14.906Z,15.15
2022-10-21T07:17:41.674Z,13.68
2022-10-21T07:20:08.720Z,13.63
2022-10-21T07:22:35.657Z,12.18
2022-10-21T07:25:02.402Z,13.60
2022-10-21T07:27:28.964Z,12.35
2022-10-21T07:29:55.411Z,13.65
2022-10-21T07:32:21.841Z,12.38
2022-10-21T07:34:48.245Z,10.55
2022-10-21T07:37:14.704Z,11.57
2022-10-21T07:39:41.193Z,14.20
2022-10-21T07:42:09.174Z,11.30
2022-10-21T07:44:35.586Z,11.02
2022-10-21T07:47:02.053Z,14.88
2022-10-21T07:49:28.854Z,10.68
2022-10-21T07:51:55.307Z,10.88
2022-10-21T07:54:21.821Z,10.18
2022-10-21T07:56:50.203Z,11.40
2022-10-21T07:59:18.452Z,10.40
2022-10-21T08:01:47.267Z,11.52
2022-10-21T08:04:17.542Z,13.45
2022-10-21T08:06:44.795Z,12.82
2022-10-21T08:09:11.246Z,12.45
2022-10-21T08:11:37.891Z,9.43
2022-10-21T08:14:07.466Z,8.85
2022-10-21T08:16:34.567Z,11.52
2022-10-21T08:19:01.691Z,10.43
2022-10-21T08:21:29.064Z,11.20
2022-10-21T08:23:55.521Z,9.25
2022-10-21T08:26:21.909Z,11.00
2022-10-21T08:28:48.606Z,9.57
2022-10-21T08:31:17.635Z,11.93
2022-10-21T08:33:44.578Z,8.18
2022-10-21T08:36:17.009Z,8.70
2022-10-21T08:41:31.025Z,10.63
2022-10-21T08:44:01.911Z,8.85
2022-10-21T08:46:34.015Z,8.93
2022-10-21T08:49:07.652Z,10.00
2022-10-21T08:51:39.517Z,7.70
2022-10-21T08:54:14.188Z,6.68
2022-10-21T08:56:40.601Z,8.85
2022-10-21T08:59:20.134Z,9.52
2022-10-21T09:02:01.877Z,8.50
2022-10-21T09:04:36.180Z,7.10
2022-10-21T09:07:27.588Z,5.90
2022-10-21T09:09:59.305Z,7.57
2022-10-21T09:13:01.293Z,6.38
2022-10-21T09:15:32.168Z,6.93
2022-10-21T09:18:23.228Z,5.38
2022-10-21T09:21:01.943Z,5.90
2022-10-21T09:23:37.275Z,8.88
2022-10-21T09:26:27.989Z,5.80
2022-10-21T09:28:57.214Z,7.38
2022-10-21T09:31:23.606Z,8.18
2022-10-21T09:33:54.929Z,5.20
2022-10-21T09:36:34.925Z,9.85
2022-10-21T09:39:05.850Z,6.28
2022-10-21T09:41:46.739Z,7.05
2022-10-21T09:44:19.746Z,7.65
2022-10-21T09:46:47.177Z,6.93
2022-10-21T09:52:20.100Z,6.10
2022-10-21T09:54:46.987Z,6.35
2022-10-21T09:57:14.672Z,11.45
2022-10-21T10:00:00.186Z,5.75
2022-10-21T10:02:30.353Z,6.32
2022-10-21T10:04:56.874Z,6.63
2022-10-21T10:07:25.993Z,6.13
2022-10-21T10:09:52.377Z,5.40
2022-10-21T10:12:24.184Z,5.93
2022-10-21T10:14:50.733Z,5.80
2022-10-21T10:17:26.918Z,5.28
2022-10-21T10:20:05.619Z,6.63
2022-10-21T10:22:41.732Z,4.68
2022-10-21T10:25:14.423Z,7.88
2022-10-21T10:30:22.786Z,5.75
2022-10-21T10:32:53.761Z,6.28
2022-10-21T10:35:28.937Z,5.40
2022-10-21T10:37:58.322Z,4.93
2022-10-21T10:40:39.693Z,7.15
2022-10-21T10:43:22.941Z,6.38
2022-10-21T10:45:53.279Z,7.63
2022-10-21T10:48:24.304Z,7.25
2022-10-21T10:50:50.849Z,5.68
2022-10-21T10:53:23.486Z,8.48
2022-10-21T10:55:56.664Z,8.63
2022-10-21T10:58:27.825Z,11.70
2022-10-21T11:00:57.704Z,6.57
2022-10-21T11:03:32.188Z,8.02
2022-10-21T11:06:07.258Z,5.40
2022-10-21T11:08:39.513Z,6.10
2022-10-21T11:11:07.601Z,9.05
2022-10-21T11:13:38.805Z,9.50
2022-10-21T11:16:57.347Z,6.35
2022-10-21T11:19:42.334Z,8.02
2022-10-21T11:22:13.093Z,8.65
2022-10-21T11:24:55.947Z,6.50
2022-10-21T11:27:45.493Z,8.02
2022-10-21T11:30:20.540Z,6.90
2022-10-21T11:33:05.257Z,7.57
2022-10-21T11:35:56.755Z,7.25
2022-10-21T11:38:28.036Z,11.68
2022-10-21T11:41:28.399Z,6.70
2022-10-21T11:44:16.913Z,7.15
2022-10-21T11:46:58.689Z,7.47
2022-10-21T11:49:37.245Z,9.00
2022-10-21T11:52:16.283Z,9.50
2022-10-21T11:55:07.873Z,8.60
2022-10-21T11:58:04.388Z,6.95
2022-10-21T12:00:40.664Z,8.90
2022-10-21T12:03:16.813Z,8.63
2022-10-21T12:05:55.303Z,6.82
2022-10-21T12:08:31.800Z,8.10
2022-10-21T12:11:08.822Z,7.82
2022-10-21T12:14:09.310Z,10.48
2022-10-21T12:16:35.800Z,8.10
2022-10-21T12:19:07.315Z,8.32
2022-10-21T12:21:36.593Z,9.45
2022-10-21T12:24:41.887Z,6.57
2022-10-21T12:27:31.501Z,10.60
2022-10-21T12:30:23.509Z,10.23
2022-10-21T12:33:13.000Z,8.30
2022-10-21T12:35:58.149Z,8.25
2022-10-21T12:38:46.317Z,12.98
2022-10-21T12:41:24.899Z,8.48
2022-10-21T12:43:57.135Z,10.25
2022-10-21T12:46:44.927Z,10.10
2022-10-21T12:49:32.407Z,10.93
2022-10-21T12:51:58.819Z,11.30
2022-10-21T12:54:31.498Z,10.25
2022-10-21T12:57:01.027Z,10.88
2022-10-21T12:59:27.343Z,9.77
2022-10-21T13:02:06.030Z,10.27
2022-10-21T13:04:32.324Z,8.38
2022-10-21T13:07:23.379Z,7.85
2022-10-21T13:09:50.755Z,8.13
2022-10-21T13:12:23.037Z,12.25
2022-10-21T13:14:56.307Z,8.68
2022-10-21T13:17:22.577Z,8.43
2022-10-21T13:20:14.793Z,8.45
2022-10-21T13:22:42.931Z,7.65
2022-10-21T13:25:15.603Z,6.65
2022-10-21T13:27:50.813Z,5.70
2022-10-21T13:30:31.806Z,6.18
2022-10-21T13:33:03.700Z,8.93
2022-10-21T13:35:36.808Z,7.25
2022-10-21T13:38:19.756Z,12.75
2022-10-21T13:40:57.979Z,5.75
2022-10-21T13:43:28.807Z,5.88
2022-10-21T13:46:08.426Z,5.72
2022-10-21T13:48:40.036Z,4.95
2022-10-21T13:51:15.909Z,6.90
2022-10-21T13:53:45.546Z,6.32
2022-10-21T13:56:19.694Z,6.47
2022-10-21T13:58:46.112Z,9.10
2022-10-21T14:01:16.743Z,5.35
2022-10-21T14:03:43.883Z,5.65
2022-10-21T14:06:11.463Z,5.47
2022-10-21T14:08:42.991Z,5.03
2022-10-21T14:11:23.088Z,7.90
2022-10-21T14:13:50.844Z,9.82
2022-10-21T14:16:23.855Z,7.30
2022-10-21T14:18:51.169Z,6.13
2022-10-21T14:21:25.812Z,5.20
2022-10-21T14:23:53.028Z,7.57
2022-10-21T14:26:19.592Z,7.07
2022-10-21T14:28:47.267Z,6.60
2022-10-21T14:31:14.342Z,8.18
2022-10-21T14:33:43.283Z,8.55
2022-10-21T14:36:15.133Z,7.45
2022-10-21T14:38:43.319Z,9.07
2022-10-21T14:41:15.995Z,10.30
2022-10-21T14:43:43.820Z,9.65
2022-10-21T14:46:10.747Z,5.97
2022-10-21T14:48:46.554Z,7.07
2022-10-21T14:51:17.728Z,8.80
2022-10-21T14:54:02.029Z,8.23
2022-10-21T14:56:31.825Z,6.60
2022-10-21T14:58:59.939Z,7.47
2022-10-21T15:01:26.549Z,6.68
2022-10-21T15:04:01.507Z,6.95
2022-10-21T15:06:35.849Z,7.35
2022-10-21T15:09:23.404Z,9.27
2022-10-21T15:11:49.832Z,8.07
2022-10-21T15:14:26.005Z,7.53
2022-10-21T15:16:57.204Z,8.80
2022-10-21T15:19:41.352Z,8.27
2022-10-21T15:22:22.010Z,10.70
2022-10-21T15:24:48.555Z,6.32
2022-10-21T15:27:28.357Z,6.72
2022-10-21T15:29:54.872Z,6.85
2022-10-21T15:32:25.594Z,5.32
2022-10-21T15:34:55.981Z,5.70
2022-10-21T15:37:22.358Z,7.57
2022-10-21T15:39:48.938Z,5.50
2022-10-21T15:42:17.669Z,6.10
2022-10-21T15:44:48.313Z,7.10
2022-10-21T15:47:14.833Z,7.22
2022-10-21T15:49:42.806Z,4.82
2022-10-21T15:52:09.529Z,6.45
2022-10-21T15:54:35.937Z,6.05
2022-10-21T15:57:11.984Z,6.65
2022-10-21T15:59:38.364Z,4.25
2022-10-21T16:04:36.109Z,8.55
2022-10-21T16:07:02.481Z,6.28
2022-10-21T16:09:29.331Z,5.95
2022-10-21T16:12:00.131Z,4.78
2022-10-21T16:14:30.226Z,6.40
2022-10-21T16:16:58.382Z,5.03
2022-10-21T16:19:24.887Z,8.20
2022-10-21T16:21:51.282Z,4.78
2022-10-21T16:24:17.882Z,3.72
2022-10-21T16:26:46.342Z,7.47
2022-10-21T16:34:11.649Z,8.68
2022-10-21T16:36:38.166Z,5.65
2022-10-21T16:39:10.808Z,6.28
2022-10-21T16:41:37.257Z,7.57
2022-10-21T16:44:04.112Z,5.57
2022-10-21T16:46:32.906Z,7.53
2022-10-21T16:49:00.426Z,6.57
2022-10-21T16:51:30.780Z,7.45
2022-10-21T16:53:57.492Z,7.03
2022-10-21T16:56:24.156Z,6.70
2022-10-21T16:58:51.442Z,7.93
2022-10-21T17:01:20.219Z,4.80
2022-10-21T17:03:46.795Z,4.22
2022-10-21T17:06:20.203Z,6.22
2022-10-21T17:08:50.595Z,6.85
2022-10-21T17:11:20.886Z,5.00
2022-10-21T17:13:47.332Z,5.88
2022-10-21T17:16:13.799Z,5.28
2022-10-21T17:18:40.292Z,3.67
2022-10-21T17:21:06.707Z,8.38
2022-10-21T17:23:33.174Z,5.45
2022-10-21T17:25:59.616Z,5.85
2022-10-21T17:28:26.087Z,3.92
2022-10-21T17:30:53.415Z,5.15
2022-10-21T17:33:19.800Z,4.03
2022-10-21T17:35:46.197Z,2.75
2022-10-21T17:38:14.918Z,6.00
2022-10-21T17:40:41.472Z,4.85
2022-10-21T17:43:07.858Z,8.50
2022-10-21T17:45:34.245Z,3.33
2022-10-21T17:48:00.610Z,5.25
2022-10-21T17:50:27.080Z,4.07
2022-10-21T17:52:54.027Z,6.25
2022-10-21T17:55:20.841Z,4.97
2022-10-21T17:57:47.221Z,6.78
2022-10-21T18:00:14.204Z,5.57
2022-10-21T18:02:40.974Z,4.38
2022-10-21T18:05:09.561Z,6.25
2022-10-21T18:07:36.019Z,4.70
2022-10-21T18:10:03.839Z,7.55
2022-10-21T18:12:30.410Z,8.45
2022-10-21T18:14:56.851Z,4.40
2022-10-21T18:17:23.274Z,5.10
2022-10-21T18:19:51.397Z,6.43
2022-10-21T18:22:17.820Z,5.47
2022-10-21T18:24:44.243Z,3.85
2022-10-21T18:27:10.716Z,5.57
2022-10-21T18:29:37.995Z,6.85
2022-10-21T18:32:04.375Z,4.22
2022-10-21T18:34:30.945Z,5.35
2022-10-21T18:36:59.423Z,6.05
2022-10-21T18:39:26.612Z,7.13
2022-10-21T18:41:53.672Z,4.60
2022-10-21T18:44:20.422Z,5.72
2022-10-21T18:46:49.233Z,3.63
2022-10-21T18:49:18.373Z,4.07
2022-10-21T18:51:45.214Z,5.43
2022-10-21T18:54:11.818Z,4.43
2022-10-21T18:56:38.205Z,7.72
2022-10-21T18:59:05.366Z,3.88
2022-10-21T19:01:31.901Z,3.90
2022-10-21T19:03:58.440Z,3.60
2022-10-21T19:06:37.741Z,11.15
2022-10-21T19:09:15.474Z,4.15
2022-10-21T19:11:42.230Z,5.60
2022-10-21T19:14:12.979Z,5.30
2022-10-21T19:16:40.755Z,3.83
2022-10-21T19:19:07.917Z,6.57
2022-10-21T19:21:34.316Z,6.57
2022-10-21T19:24:03.018Z,4.10
2022-10-21T19:26:33.191Z,3.40
2022-10-21T19:29:01.513Z,6.00
2022-10-21T19:31:28.162Z,3.50
2022-10-21T19:33:54.603Z,5.75
2022-10-21T19:36:20.984Z,4.32
2022-10-21T19:38:47.391Z,5.53
2022-10-21T19:41:17.460Z,4.00
2022-10-21T19:43:43.877Z,4.80
2022-10-21T19:46:11.370Z,5.82
2022-10-21T19:48:37.926Z,4.55
2022-10-21T19:51:04.884Z,4.35
2022-10-21T19:53:33.611Z,5.72
2022-10-21T19:56:05.199Z,5.47
2022-10-21T19:58:32.532Z,4.10
2022-10-21T20:01:09.274Z,3.58
2022-10-21T20:03:37.333Z,7.20
2022-10-21T20:06:08.287Z,4.35
2022-10-21T20:08:35.681Z,4.97
2022-10-21T20:11:04.715Z,8.15
2022-10-21T20:13:31.215Z,7.93
2022-10-21T20:15:58.630Z,4.28
2022-10-21T20:18:27.310Z,4.85
2022-10-21T20:20:54.911Z,3.58
2022-10-21T20:23:22.110Z,3.65
2022-10-21T20:25:49.887Z,5.45
2022-10-21T20:28:16.986Z,2.88
2022-10-21T20:30:43.907Z,2.83
2022-10-21T20:33:12.366Z,4.40
2022-10-21T20:38:11.612Z,6.13
2022-10-21T20:40:38.127Z,7.63
2022-10-21T20:43:04.625Z,4.45
2022-10-21T20:45:31.070Z,3.65
2022-10-21T20:47:57.449Z,5.47
2022-10-21T20:50:23.850Z,7.35
2022-10-21T20:52:50.304Z,5.10
2022-10-21T20:55:16.770Z,4.82
2022-10-21T20:57:43.640Z,3.22
2022-10-21T21:00:11.593Z,5.80
2022-10-21T21:02:38.108Z,4.38
2022-10-21T21:05:04.896Z,10.25
2022-10-21T21:07:31.341Z,4.03
2022-10-21T21:10:02.740Z,7.22
2022-10-21T21:12:29.771Z,4.80
2022-10-21T21:14:56.163Z,4.78
2022-10-21T21:17:22.542Z,4.13
2022-10-21T21:19:48.970Z,5.47
2022-10-21T21:22:15.437Z,5.65
2022-10-21T21:24:42.051Z,5.85
2022-10-21T21:27:08.542Z,4.07
2022-10-21T21:29:35.726Z,6.90
2022-10-21T21:32:02.130Z,5.70
2022-10-21T21:34:28.637Z,4.93
2022-10-21T21:36:54.985Z,6.38
2022-10-21T21:39:21.433Z,5.57
2022-10-21T21:41:47.827Z,4.25
2022-10-21T21:44:14.248Z,4.32
2022-10-21T21:46:40.645Z,6.35
2022-10-21T21:49:07.176Z,6.07
2022-10-21T21:51:35.446Z,5.13
2022-10-21T21:54:02.640Z,5.32
2022-10-21T21:56:29.107Z,5.57
2022-10-21T21:58:57.524Z,7.22
2022-10-21T22:01:26.544Z,8.25
2022-10-21T22:03:53.023Z,6.30
2022-10-21T22:06:21.038Z,5.85
2022-10-21T22:08:47.943Z,4.20
2022-10-21T22:11:16.801Z,5.68
2022-10-21T22:13:43.307Z,6.32
2022-10-21T22:16:11.399Z,5.05
2022-10-21T22:18:38.925Z,5.22
2022-10-21T22:21:07.755Z,6.47
2022-10-21T22:23:34.532Z,7.82
2022-10-21T22:26:01.055Z,4.35
2022-10-21T22:28:27.779Z,3.95
2022-10-21T22:31:06.458Z,7.13
2022-10-21T22:33:33.564Z,6.15
2022-10-21T22:36:00.054Z,4.28
2022-10-21T22:38:26.628Z,6.57
2022-10-21T22:40:58.289Z,8.70
2022-10-21T22:43:26.088Z,10.07
2022-10-21T22:45:55.255Z,5.93
2022-10-21T22:48:27.987Z,6.05
2022-10-21T22:50:54.630Z,6.22
2022-10-21T22:53:21.242Z,5.05
2022-10-21T22:55:47.778Z,4.97
2022-10-21T22:58:21.866Z,8.65
2022-10-21T23:00:49.077Z,7.28
2022-10-21T23:03:16.911Z,6.03
2022-10-21T23:05:43.351Z,6.85
2022-10-21T23:08:10.114Z,6.13
2022-10-21T23:10:36.773Z,4.07
2022-10-21T23:13:05.328Z,6.55
2022-10-21T23:15:35.600Z,7.53
2022-10-21T23:18:02.131Z,5.00
2022-10-21T23:20:28.990Z,5.18
2022-10-21T23:22:55.367Z,5.18
2022-10-21T23:25:22.915Z,4.28
2022-10-21T23:27:49.913Z,7.35
2022-10-21T23:30:16.637Z,3.92
2022-10-21T23:32:43.206Z,7.63
2022-10-21T23:35:09.700Z,6.20
2022-10-21T23:37:36.255Z,4.75
2022-10-21T23:40:02.979Z,6.00
2022-10-21T23:42:29.350Z,5.32
2022-10-21T23:44:55.781Z,5.50
2022-10-21T23:47:22.159Z,6.07
2022-10-21T23:49:48.544Z,4.55
2022-10-21T23:52:15.070Z,9.27
2022-10-21T23:54:41.800Z,3.17
2022-10-21T23:57:08.323Z,6.18
2022-10-21T23:59:35.165Z,5.30
